Time;durP1;ratioP1;P1;durP2;ratioP2;P2;SDS_P1;SDS_P2;PMS_P1;PMS_P2;Temp;Humidity;BMP_temperature;BMP_pressure;BME280_temperature;BME280_humidity;BME280_pressure;Samples;Min_cycle;Max_cycle;Signal;HPM_P1;HPM_P2
2023/03/04 00:01:02;;;;;;;;;;;5.00;99.90;;;;;;5026764;28;19943;-66
2023/03/04 00:03:29;;;;;;;;;;;4.90;99.90;;;;;;5028077;28;19924;-67
2023/03/04 00:05:56;;;;;;;;;;;5.00;99.90;;;;;;5026552;28;20028;-66
2023/03/04 00:08:22;;;;;;;;;;;5.00;99.90;;;;;;5019387;28;20284;-66
2023/03/04 00:10:50;;;;;;;;;;;5.00;99.90;;;;;;5024661;28;19929;-67
2023/03/04 00:13:19;;;;;;;;;;;5.00;99.90;;;;;;5020759;28;20392;-67
2023/03/04 00:15:46;;;;;;;;;;;5.00;99.90;;;;;;5023205;28;19971;-67
2023/03/04 00:18:13;;;;;;;;;;;5.00;99.90;;;;;;5023610;28;19925;-66
2023/03/04 00:20:40;;;;;;;;;;;5.00;99.90;;;;;;5023033;28;20063;-66
2023/03/04 00:23:06;;;;;;;;;;;5.00;99.90;;;;;;5020117;28;19929;-66
2023/03/04 00:25:33;;;;;;;;;;;5.00;99.90;;;;;;5023603;28;19936;-66
2023/03/04 00:28:01;;;;;;;;;;;4.90;99.90;;;;;;5021522;28;20012;-68
2023/03/04 00:30:28;;;;;;;;;;;4.90;99.90;;;;;;5021399;28;19983;-66
2023/03/04 00:32:55;;;;;;;;;;;5.00;99.90;;;;;;5025913;28;19926;-66
2023/03/04 00:35:21;;;;;;;;;;;5.00;99.90;;;;;;5022253;28;19925;-65
2023/03/04 00:37:48;;;;;;;;;;;5.00;99.90;;;;;;5022980;28;20448;-66
2023/03/04 00:40:15;;;;;;;;;;;5.00;99.90;;;;;;5020827;28;19940;-66
2023/03/04 00:42:41;;;;;;;;;;;5.00;99.90;;;;;;5022502;28;19991;-67
2023/03/04 00:45:10;;;;;;;;;;;5.00;99.90;;;;;;5023336;28;19973;-67
2023/03/04 00:47:40;;;;;;;;;;;5.10;99.90;;;;;;5023236;28;19925;-67
2023/03/04 00:50:07;;;;;;;;;;;5.10;99.90;;;;;;5025386;28;20008;-67
2023/03/04 00:52:34;;;;;;;;;;;5.10;99.90;;;;;;5025212;28;19925;-66
2023/03/04 00:55:01;;;;;;;;;;;5.00;99.90;;;;;;5026607;28;20363;-66
2023/03/04 00:57:27;;;;;;;;;;;5.00;99.90;;;;;;5028977;28;20295;-67
2023/03/04 00:59:54;;;;;;;;;;;5.00;99.90;;;;;;5023289;28;19952;-67
2023/03/04 01:02:22;;;;;;;;;;;5.00;99.90;;;;;;5028233;28;20019;-67
2023/03/04 01:04:49;;;;;;;;;;;5.00;99.90;;;;;;5022356;28;19968;-72
2023/03/04 01:07:15;;;;;;;;;;;5.00;99.90;;;;;;5024163;28;20020;-72
2023/03/04 01:09:42;;;;;;;;;;;4.90;99.90;;;;;;5022569;28;19925;-71
2023/03/04 01:12:09;;;;;;;;;;;5.00;99.90;;;;;;5024634;28;19932;-72
2023/03/04 01:14:36;;;;;;;;;;;5.00;99.90;;;;;;5019170;28;20027;-72
2023/03/04 01:17:02;;;;;;;;;;;5.10;99.90;;;;;;5022477;28;19929;-71
2023/03/04 01:19:35;;;;;;;;;;;5.10;99.90;;;;;;5024760;28;20012;-71
2023/03/04 01:22:02;;;;;;;;;;;5.10;99.90;;;;;;5021454;28;19929;-72
2023/03/04 01:24:29;;;;;;;;;;;5.10;99.90;;;;;;5020990;28;19973;-72
2023/03/04 01:26:56;;;;;;;;;;;5.10;99.90;;;;;;5025780;28;19939;-72
2023/03/04 01:29:23;;;;;;;;;;;5.10;99.90;;;;;;5023308;28;19934;-71
2023/03/04 01:31:49;;;;;;;;;;;5.10;99.90;;;;;;5021764;28;19925;-71
2023/03/04 01:34:16;;;;;;;;;;;5.10;99.90;;;;;;5025141;28;19961;-71
2023/03/04 01:36:45;;;;;;;;;;;5.10;99.90;;;;;;5026098;28;19929;-70
2023/03/04 01:39:11;;;;;;;;;;;5.10;99.90;;;;;;5020194;28;19925;-71
2023/03/04 01:41:38;;;;;;;;;;;5.10;99.90;;;;;;5024954;28;19939;-71
2023/03/04 01:44:05;;;;;;;;;;;5.10;99.90;;;;;;5018259;28;19936;-72
2023/03/04 01:46:32;;;;;;;;;;;5.10;99.90;;;;;;5029166;28;20316;-71
2023/03/04 01:48:59;;;;;;;;;;;5.10;99.90;;;;;;5022290;28;20015;-71
2023/03/04 01:51:26;;;;;;;;;;;5.00;99.90;;;;;;5029520;28;20426;-70
2023/03/04 01:53:54;;;;;;;;;;;5.00;99.90;;;;;;5027398;28;20023;-70
2023/03/04 01:56:23;;;;;;;;;;;5.00;99.90;;;;;;5030857;28;20403;-70
2023/03/04 01:59:05;;;;;;;;;;;5.00;99.90;;;;;;5023124;28;19932;-70
2023/03/04 02:01:34;;;;;;;;;;;5.00;99.90;;;;;;5026192;28;20004;-72
2023/03/04 02:04:01;;;;;;;;;;;5.00;99.90;;;;;;5028735;28;19961;-70
2023/03/04 02:06:27;;;;;;;;;;;5.00;99.90;;;;;;5030472;28;19929;-70
2023/03/04 02:09:04;;;;;;;;;;;5.00;99.90;;;;;;5029625;28;20436;-70
2023/03/04 02:11:31;;;;;;;;;;;5.00;99.90;;;;;;5034406;28;19929;-72
2023/03/04 02:13:58;;;;;;;;;;;5.00;99.90;;;;;;5030785;28;19953;-71
2023/03/04 02:16:24;;;;;;;;;;;5.00;99.90;;;;;;5023328;28;20041;-70
2023/03/04 02:18:51;;;;;;;;;;;5.00;99.90;;;;;;5026790;28;19929;-71
2023/03/04 02:21:21;;;;;;;;;;;5.00;99.90;;;;;;5025792;28;20016;-71
2023/03/04 02:23:52;;;;;;;;;;;5.00;99.90;;;;;;5021922;28;19939;-71
2023/03/04 02:26:21;;;;;;;;;;;5.00;99.90;;;;;;5031061;28;20016;-71
2023/03/04 02:28:49;;;;;;;;;;;5.10;99.90;;;;;;5024805;28;19925;-71
2023/03/04 02:31:21;;;;;;;;;;;5.00;99.90;;;;;;5029318;28;19925;-70
2023/03/04 02:33:48;;;;;;;;;;;5.00;99.90;;;;;;5027775;28;19931;-71
2023/03/04 02:36:15;;;;;;;;;;;5.00;99.90;;;;;;5029625;28;19925;-72
2023/03/04 02:38:41;;;;;;;;;;;5.00;99.90;;;;;;5024437;28;19925;-71
2023/03/04 02:41:11;;;;;;;;;;;4.90;99.90;;;;;;5028297;28;20010;-71
2023/03/04 02:43:40;;;;;;;;;;;4.90;99.90;;;;;;5021943;28;20507;-71
2023/03/04 02:46:06;;;;;;;;;;;5.00;99.90;;;;;;5028099;28;20009;-70
2023/03/04 02:48:33;;;;;;;;;;;4.90;99.90;;;;;;5027120;28;19951;-70
2023/03/04 02:51:00;;;;;;;;;;;4.90;99.90;;;;;;5028090;28;19929;-70
2023/03/04 02:53:27;;;;;;;;;;;4.90;99.90;;;;;;5023416;28;19929;-70
2023/03/04 02:55:54;;;;;;;;;;;4.90;99.90;;;;;;5027140;28;20343;-72
2023/03/04 02:58:20;;;;;;;;;;;4.90;99.90;;;;;;5023894;28;20007;-71
2023/03/04 03:00:49;;;;;;;;;;;4.90;99.90;;;;;;5022082;28;19937;-71
2023/03/04 03:03:15;;;;;;;;;;;4.90;99.90;;;;;;5031061;28;19972;-71
2023/03/04 03:05:42;;;;;;;;;;;4.90;99.90;;;;;;5023689;28;19960;-72
2023/03/04 03:08:09;;;;;;;;;;;4.90;99.90;;;;;;5026548;28;19933;-72
2023/03/04 03:10:36;;;;;;;;;;;5.00;99.90;;;;;;5025779;28;19976;-73
2023/03/04 03:13:02;;;;;;;;;;;5.00;99.90;;;;;;5027460;28;19960;-71
2023/03/04 03:15:29;;;;;;;;;;;5.00;99.90;;;;;;5022965;28;20007;-72
2023/03/04 03:17:58;;;;;;;;;;;5.00;99.90;;;;;;5026014;28;19965;-72
2023/03/04 03:20:24;;;;;;;;;;;4.90;99.90;;;;;;5025673;28;20467;-71
2023/03/04 03:22:51;;;;;;;;;;;4.90;99.90;;;;;;5031806;28;20016;-70
2023/03/04 03:25:18;;;;;;;;;;;4.90;99.90;;;;;;5025678;28;20028;-70
2023/03/04 03:27:45;;;;;;;;;;;5.00;99.90;;;;;;5022808;28;19940;-72
2023/03/04 03:30:13;;;;;;;;;;;5.00;99.90;;;;;;5033019;28;20028;-71
2023/03/04 03:32:39;;;;;;;;;;;5.00;99.90;;;;;;5028151;28;19925;-71
2023/03/04 03:35:08;;;;;;;;;;;5.00;99.90;;;;;;5032277;28;20337;-71
2023/03/04 03:37:34;;;;;;;;;;;5.00;99.90;;;;;;5026461;28;20349;-72
2023/03/04 03:40:02;;;;;;;;;;;5.00;99.90;;;;;;5035169;28;19925;-71
2023/03/04 03:42:28;;;;;;;;;;;5.00;99.90;;;;;;5029210;28;19925;-71
2023/03/04 03:44:55;;;;;;;;;;;5.10;99.90;;;;;;5035526;28;19929;-71
2023/03/04 03:47:22;;;;;;;;;;;5.10;99.90;;;;;;5023347;28;19932;-71
2023/03/04 03:49:49;;;;;;;;;;;5.00;99.90;;;;;;5035756;28;20035;-71
2023/03/04 03:52:17;;;;;;;;;;;5.00;99.90;;;;;;5037441;28;19932;-71
2023/03/04 03:54:44;;;;;;;;;;;5.00;99.90;;;;;;5037098;28;20012;-72
2023/03/04 03:57:11;;;;;;;;;;;5.00;99.90;;;;;;5022982;28;19968;-71
2023/03/04 03:59:38;;;;;;;;;;;5.10;99.90;;;;;;5023790;28;19925;-71
2023/03/04 04:02:07;;;;;;;;;;;5.10;99.90;;;;;;5020816;28;19976;-71
2023/03/04 04:04:41;;;;;;;;;;;5.10;99.90;;;;;;5018602;28;20007;-71
2023/03/04 04:07:08;;;;;;;;;;;5.10;99.90;;;;;;5019750;28;19929;-71
2023/03/04 04:09:36;;;;;;;;;;;5.10;99.90;;;;;;5022988;28;20372;-71
2023/03/04 04:12:04;;;;;;;;;;;5.10;99.90;;;;;;5021522;28;20308;-70
2023/03/04 04:14:34;;;;;;;;;;;5.10;99.90;;;;;;5019402;28;19959;-70
2023/03/04 04:17:01;;;;;;;;;;;5.10;99.90;;;;;;5024370;28;19932;-71
2023/03/04 04:19:28;;;;;;;;;;;5.10;99.90;;;;;;5024574;28;19965;-71
2023/03/04 04:21:55;;;;;;;;;;;5.10;99.90;;;;;;5024567;28;19930;-71
2023/03/04 04:24:21;;;;;;;;;;;5.10;99.90;;;;;;5020495;28;20023;-71
2023/03/04 04:26:49;;;;;;;;;;;5.10;99.90;;;;;;5021415;28;19933;-71
2023/03/04 04:29:16;;;;;;;;;;;5.10;99.90;;;;;;5022515;28;20443;-71
2023/03/04 04:31:43;;;;;;;;;;;5.00;99.90;;;;;;5019192;28;20579;-71
2023/03/04 04:34:10;;;;;;;;;;;5.10;99.90;;;;;;5018080;28;20105;-71
2023/03/04 04:36:36;;;;;;;;;;;5.10;99.90;;;;;;5020299;28;19975;-71
2023/03/04 04:39:04;;;;;;;;;;;5.00;99.90;;;;;;5023444;28;19931;-71
2023/03/04 04:41:34;;;;;;;;;;;5.10;99.90;;;;;;5022262;28;20003;-71
2023/03/04 04:44:03;;;;;;;;;;;5.10;99.90;;;;;;5018956;28;20013;-71
2023/03/04 04:46:29;;;;;;;;;;;5.10;99.90;;;;;;5019473;28;19925;-70
2023/03/04 04:48:56;;;;;;;;;;;5.10;99.90;;;;;;5018819;28;19932;-72
2023/03/04 04:51:26;;;;;;;;;;;5.10;99.90;;;;;;5014205;28;19937;-70
2023/03/04 04:53:52;;;;;;;;;;;5.20;99.90;;;;;;5023579;28;19933;-72
2023/03/04 04:56:20;;;;;;;;;;;5.20;99.90;;;;;;5026027;28;19925;-71
2023/03/04 04:58:47;;;;;;;;;;;5.20;99.90;;;;;;5026952;28;19929;-71
2023/03/04 05:01:15;;;;;;;;;;;5.20;99.90;;;;;;5028760;28;20304;-70
2023/03/04 05:03:42;;;;;;;;;;;5.20;99.90;;;;;;5027267;28;19931;-71
2023/03/04 05:06:10;;;;;;;;;;;5.20;99.90;;;;;;5035065;28;20371;-70
2023/03/04 05:08:36;;;;;;;;;;;5.10;99.90;;;;;;5027441;28;19925;-73
2023/03/04 05:11:04;;;;;;;;;;;5.20;99.90;;;;;;5031730;28;19925;-71
2023/03/04 05:13:31;;;;;;;;;;;5.10;99.90;;;;;;5025206;28;19988;-71
2023/03/04 05:15:58;;;;;;;;;;;5.10;99.90;;;;;;5030311;28;19926;-71
2023/03/04 05:18:26;;;;;;;;;;;5.10;99.90;;;;;;5035272;28;20292;-72
2023/03/04 05:20:54;;;;;;;;;;;5.10;99.90;;;;;;5023523;28;19931;-71
2023/03/04 05:23:21;;;;;;;;;;;5.10;99.90;;;;;;5026270;28;20160;-72
2023/03/04 05:25:48;;;;;;;;;;;5.20;99.90;;;;;;5031722;28;19925;-71
2023/03/04 05:28:15;;;;;;;;;;;5.20;99.90;;;;;;5024419;28;19932;-71
2023/03/04 05:30:42;;;;;;;;;;;5.20;99.90;;;;;;5023654;28;19926;-71
2023/03/04 05:33:10;;;;;;;;;;;5.20;99.90;;;;;;5028255;28;19925;-71
2023/03/04 05:35:38;;;;;;;;;;;5.20;99.90;;;;;;5026678;28;19925;-71
2023/03/04 05:38:05;;;;;;;;;;;5.10;99.90;;;;;;5030458;28;20015;-72
2023/03/04 05:40:32;;;;;;;;;;;5.10;99.90;;;;;;5024203;28;19964;-72
2023/03/04 05:42:59;;;;;;;;;;;5.20;99.90;;;;;;5026714;28;19987;-72
2023/03/04 05:45:26;;;;;;;;;;;5.10;99.90;;;;;;5026714;28;20019;-71
2023/03/04 05:47:53;;;;;;;;;;;5.10;99.90;;;;;;5024676;28;20028;-72
2023/03/04 05:50:20;;;;;;;;;;;5.10;99.90;;;;;;5025823;28;19925;-71
2023/03/04 05:52:49;;;;;;;;;;;5.10;99.90;;;;;;5033142;28;20458;-72
2023/03/04 05:55:16;;;;;;;;;;;5.10;99.90;;;;;;5026006;28;20458;-72
2023/03/04 05:57:43;;;;;;;;;;;5.10;99.90;;;;;;5035567;28;20615;-71
2023/03/04 06:00:12;;;;;;;;;;;5.20;99.90;;;;;;5026309;28;19991;-71
2023/03/04 06:02:39;;;;;;;;;;;5.10;99.90;;;;;;5026764;28;19976;-71
2023/03/04 06:05:06;;;;;;;;;;;5.10;99.90;;;;;;5020492;28;20406;-72
2023/03/04 06:07:33;;;;;;;;;;;5.10;99.90;;;;;;5022502;28;19935;-73
2023/03/04 06:10:01;;;;;;;;;;;5.10;99.90;;;;;;5024168;28;20019;-72
2023/03/04 06:12:28;;;;;;;;;;;5.10;99.90;;;;;;5026581;28;19925;-71
2023/03/04 06:14:55;;;;;;;;;;;5.10;99.90;;;;;;5026119;28;19929;-71
2023/03/04 06:17:22;;;;;;;;;;;5.10;99.90;;;;;;5026264;28;20024;-71
2023/03/04 06:19:48;;;;;;;;;;;5.10;99.90;;;;;;5033951;28;20011;-71
2023/03/04 06:22:15;;;;;;;;;;;5.10;99.90;;;;;;5028605;28;19964;-71
2023/03/04 06:24:42;;;;;;;;;;;5.10;99.90;;;;;;5016981;28;20319;-70
2023/03/04 06:27:10;;;;;;;;;;;5.10;99.90;;;;;;5020197;28;19933;-71
2023/03/04 06:29:37;;;;;;;;;;;5.10;99.90;;;;;;5026139;28;20016;-72
2023/03/04 06:32:04;;;;;;;;;;;5.10;99.90;;;;;;5023415;28;19973;-69
2023/03/04 06:34:32;;;;;;;;;;;5.10;99.90;;;;;;5027600;28;19961;-71
2023/03/04 06:36:59;;;;;;;;;;;5.10;99.90;;;;;;5025093;28;20020;-71
2023/03/04 06:39:26;;;;;;;;;;;5.20;99.90;;;;;;5028511;28;20408;-70
2023/03/04 06:41:53;;;;;;;;;;;5.10;99.90;;;;;;5035471;28;19929;-71
2023/03/04 06:44:21;;;;;;;;;;;5.10;99.90;;;;;;5028550;28;19933;-71
2023/03/04 06:46:48;;;;;;;;;;;5.10;99.90;;;;;;5028675;28;20356;-72
2023/03/04 06:49:15;;;;;;;;;;;5.10;99.90;;;;;;5028278;28;20328;-71
2023/03/04 06:51:41;;;;;;;;;;;5.10;99.90;;;;;;5028730;28;19925;-70
2023/03/04 06:54:09;;;;;;;;;;;5.20;99.90;;;;;;5029482;28;20312;-72
2023/03/04 06:56:36;;;;;;;;;;;5.10;99.90;;;;;;5032053;28;20419;-71
2023/03/04 06:59:02;;;;;;;;;;;5.10;99.90;;;;;;5036157;28;19933;-71
2023/03/04 07:01:31;;;;;;;;;;;5.10;99.90;;;;;;5035025;28;19929;-71
2023/03/04 07:03:58;;;;;;;;;;;5.10;99.90;;;;;;5032355;28;20572;-71
2023/03/04 07:06:26;;;;;;;;;;;5.00;99.90;;;;;;5026808;28;20331;-72
2023/03/04 07:08:52;;;;;;;;;;;5.00;99.90;;;;;;5024686;28;19929;-72
2023/03/04 07:11:20;;;;;;;;;;;5.00;99.90;;;;;;5031403;28;19929;-71
2023/03/04 07:13:47;;;;;;;;;;;5.10;99.90;;;;;;5031259;28;19987;-71
2023/03/04 07:16:16;;;;;;;;;;;5.10;99.90;;;;;;5024583;28;19930;-71
2023/03/04 07:18:45;;;;;;;;;;;5.20;99.90;;;;;;5030268;28;19925;-71
2023/03/04 07:21:12;;;;;;;;;;;5.20;99.90;;;;;;5026608;28;20045;-72
2023/03/04 07:23:39;;;;;;;;;;;5.20;99.90;;;;;;5029170;28;19933;-71
2023/03/04 07:26:06;;;;;;;;;;;5.20;99.90;;;;;;5029496;28;20052;-71
2023/03/04 07:28:33;;;;;;;;;;;5.20;99.90;;;;;;5029637;28;20380;-71
2023/03/04 07:31:07;;;;;;;;;;;5.20;99.90;;;;;;5026127;28;20020;-72
2023/03/04 07:33:34;;;;;;;;;;;5.20;99.90;;;;;;5028622;28;20020;-72
2023/03/04 07:36:02;;;;;;;;;;;5.30;99.90;;;;;;5036444;28;20401;-72
2023/03/04 07:38:29;;;;;;;;;;;5.40;99.90;;;;;;5029754;28;19972;-73
2023/03/04 07:40:56;;;;;;;;;;;5.40;99.90;;;;;;5023485;28;19944;-71
2023/03/04 07:43:25;;;;;;;;;;;5.50;99.90;;;;;;5030635;28;19925;-71
2023/03/04 07:45:52;;;;;;;;;;;5.40;99.90;;;;;;5035287;28;20273;-73
2023/03/04 07:48:18;;;;;;;;;;;5.50;99.90;;;;;;5032474;28;19925;-73
2023/03/04 07:50:45;;;;;;;;;;;5.50;99.90;;;;;;5027119;28;20020;-71
2023/03/04 07:53:13;;;;;;;;;;;5.50;99.90;;;;;;5026401;28;20471;-72
2023/03/04 07:55:42;;;;;;;;;;;5.60;99.90;;;;;;5023960;28;20028;-72
2023/03/04 07:58:09;;;;;;;;;;;5.60;99.90;;;;;;5025060;28;19925;-72
2023/03/04 08:00:35;;;;;;;;;;;5.60;99.90;;;;;;5017814;28;19929;-72
2023/03/04 08:03:02;;;;;;;;;;;5.60;99.90;;;;;;5024549;28;19925;-71
2023/03/04 08:05:29;;;;;;;;;;;5.60;99.90;;;;;;5023539;28;20105;-68
2023/03/04 08:07:56;;;;;;;;;;;5.60;99.90;;;;;;5017683;28;21661;-68
2023/03/04 08:10:38;;;;;;;;;;;5.60;99.90;;;;;;5020748;28;19936;-69
2023/03/04 08:13:05;;;;;;;;;;;5.50;99.90;;;;;;5022819;28;20415;-69
2023/03/04 08:15:37;;;;;;;;;;;5.50;99.90;;;;;;5025267;28;20008;-70
2023/03/04 08:18:11;;;;;;;;;;;5.60;99.90;;;;;;5029646;28;19925;-67
2023/03/04 08:20:41;;;;;;;;;;;5.60;99.90;;;;;;5025272;28;19929;-67
2023/03/04 08:23:08;;;;;;;;;;;5.60;99.90;;;;;;5031495;28;19932;-67
2023/03/04 08:25:38;;;;;;;;;;;5.60;99.90;;;;;;5024677;28;20399;-68
2023/03/04 08:28:11;;;;;;;;;;;5.60;99.90;;;;;;5030336;28;19925;-68
2023/03/04 08:30:39;;;;;;;;;;;5.60;99.90;;;;;;5021868;28;19932;-67
2023/03/04 08:33:06;;;;;;;;;;;5.50;99.90;;;;;;5026589;28;19933;-68
2023/03/04 08:35:40;;;;;;;;;;;5.50;99.90;;;;;;5022352;28;20021;-68
2023/03/04 08:38:07;;;;;;;;;;;5.60;99.90;;;;;;5017379;28;20015;-69
2023/03/04 08:40:33;;;;;;;;;;;5.50;99.90;;;;;;5024027;28;19936;-70
2023/03/04 08:43:04;;;;;;;;;;;5.50;99.90;;;;;;5029738;28;19925;-69
2023/03/04 08:45:30;;;;;;;;;;;5.50;99.90;;;;;;5023719;28;19925;-69
2023/03/04 08:47:57;;;;;;;;;;;5.50;99.90;;;;;;5024909;28;19925;-69
2023/03/04 08:50:26;;;;;;;;;;;5.50;99.90;;;;;;5021623;28;20015;-68
2023/03/04 08:52:52;;;;;;;;;;;5.60;99.90;;;;;;5022744;28;20032;-68
2023/03/04 08:55:20;;;;;;;;;;;5.50;99.90;;;;;;5016267;28;19929;-67
2023/03/04 08:57:46;;;;;;;;;;;5.50;99.90;;;;;;5018537;28;19925;-68
2023/03/04 09:00:15;;;;;;;;;;;5.60;99.90;;;;;;5019045;28;19925;-68
2023/03/04 09:02:42;;;;;;;;;;;5.60;99.90;;;;;;5021597;28;20583;-68
2023/03/04 09:05:09;;;;;;;;;;;5.70;99.90;;;;;;5016510;28;19925;-68
2023/03/04 09:07:36;;;;;;;;;;;5.70;99.90;;;;;;5017245;28;19935;-66
2023/03/04 09:10:03;;;;;;;;;;;5.80;99.90;;;;;;5020256;28;19935;-68
2023/03/04 09:12:30;;;;;;;;;;;5.80;99.90;;;;;;5021818;28;19925;-69
2023/03/04 09:14:57;;;;;;;;;;;5.70;99.90;;;;;;5022878;28;20037;-68
2023/03/04 09:17:25;;;;;;;;;;;5.80;99.90;;;;;;5022193;28;20408;-69
2023/03/04 09:19:52;;;;;;;;;;;5.80;99.90;;;;;;5022359;28;19929;-68
2023/03/04 09:22:18;;;;;;;;;;;5.80;99.90;;;;;;5022576;28;19925;-67
2023/03/04 09:24:47;;;;;;;;;;;5.80;99.90;;;;;;5021903;28;19933;-68
2023/03/04 09:27:14;;;;;;;;;;;5.90;99.90;;;;;;5017202;28;19945;-69
2023/03/04 09:29:42;;;;;;;;;;;5.90;99.90;;;;;;5020750;28;20008;-69
2023/03/04 09:32:08;;;;;;;;;;;5.90;99.90;;;;;;5023815;28;20020;-68
2023/03/04 09:34:36;;;;;;;;;;;5.90;99.90;;;;;;5027416;28;20408;-69
2023/03/04 09:37:03;;;;;;;;;;;5.90;99.90;;;;;;5024490;28;19964;-68
2023/03/04 09:39:30;;;;;;;;;;;5.80;99.90;;;;;;5024121;28;19929;-69
2023/03/04 09:41:58;;;;;;;;;;;5.80;99.90;;;;;;5026985;28;20016;-70
2023/03/04 09:44:27;;;;;;;;;;;5.80;99.90;;;;;;5028186;28;20000;-69
2023/03/04 09:49:31;;;;;;;;;;;6.00;99.90;;;;;;5069830;23;19924;-68
2023/03/04 09:52:02;;;;;;;;;;;6.10;99.90;;;;;;5063709;28;20488;-67
2023/03/04 09:54:47;;;;;;;;;;;6.30;99.90;;;;;;5055819;28;19970;-67
2023/03/04 09:57:19;;;;;;;;;;;6.30;99.90;;;;;;5063350;28;20034;-69
2023/03/04 09:59:50;;;;;;;;;;;6.30;99.90;;;;;;5060035;28;20272;-68
2023/03/04 10:02:20;;;;;;;;;;;6.20;99.90;;;;;;5066663;28;19932;-68
2023/03/04 10:04:48;;;;;;;;;;;6.20;99.90;;;;;;5058611;28;19932;-67
2023/03/04 10:07:18;;;;;;;;;;;6.10;99.90;;;;;;5059830;28;20794;-67
2023/03/04 10:09:47;;;;;;;;;;;6.20;99.90;;;;;;5067138;28;19924;-68
2023/03/04 10:12:15;;;;;;;;;;;6.10;99.90;;;;;;5066285;28;20047;-67
2023/03/04 10:14:44;;;;;;;;;;;6.20;99.90;;;;;;5064827;28;19979;-66
2023/03/04 10:17:14;;;;;;;;;;;6.20;99.90;;;;;;5069211;28;19928;-67
2023/03/04 10:19:49;;;;;;;;;;;6.20;99.90;;;;;;5064230;28;19970;-66
2023/03/04 10:22:21;;;;;;;;;;;6.20;99.90;;;;;;5069948;28;20292;-67
2023/03/04 10:24:48;;;;;;;;;;;6.20;99.90;;;;;;5068318;28;19971;-67
2023/03/04 10:27:16;;;;;;;;;;;6.20;99.90;;;;;;5078907;28;19932;-67
2023/03/04 10:29:43;;;;;;;;;;;6.20;99.90;;;;;;5068207;28;20292;-68
2023/03/04 10:32:12;;;;;;;;;;;6.30;99.90;;;;;;5066292;28;19928;-67
2023/03/04 10:34:39;;;;;;;;;;;6.40;99.90;;;;;;5069274;28;19985;-66
2023/03/04 10:37:07;;;;;;;;;;;6.50;99.90;;;;;;5071750;28;19931;-67
2023/03/04 10:39:36;;;;;;;;;;;6.60;99.90;;;;;;5067957;28;19936;-67
2023/03/04 10:42:04;;;;;;;;;;;6.70;99.90;;;;;;5071215;28;20429;-67
2023/03/04 10:44:31;;;;;;;;;;;6.70;99.90;;;;;;5071442;28;19931;-67
2023/03/04 10:46:58;;;;;;;;;;;6.70;99.90;;;;;;5070207;28;20328;-66
2023/03/04 10:49:25;;;;;;;;;;;6.70;99.90;;;;;;5068464;28;19968;-67
2023/03/04 10:51:53;;;;;;;;;;;6.50;99.90;;;;;;5076181;28;20011;-67
2023/03/04 10:54:25;;;;;;;;;;;6.40;99.90;;;;;;5074154;28;20016;-68
2023/03/04 10:56:55;;;;;;;;;;;6.40;99.90;;;;;;5070340;28;20277;-67
2023/03/04 10:59:38;;;;;;;;;;;6.40;99.90;;;;;;5069540;28;19972;-66
2023/03/04 11:02:14;;;;;;;;;;;6.40;99.90;;;;;;5065865;28;19932;-67
2023/03/04 11:04:41;;;;;;;;;;;6.70;99.90;;;;;;5080574;28;19967;-68
2023/03/04 11:07:08;;;;;;;;;;;6.90;99.90;;;;;;5067414;28;19935;-68
2023/03/04 11:09:35;;;;;;;;;;;6.70;99.90;;;;;;5068061;28;19925;-67
2023/03/04 11:12:09;;;;;;;;;;;6.80;99.90;;;;;;5056909;28;20027;-68
2023/03/04 11:14:37;;;;;;;;;;;7.00;99.90;;;;;;5060516;28;20096;-67
2023/03/04 11:17:16;;;;;;;;;;;7.00;99.90;;;;;;5062528;28;19933;-68
2023/03/04 11:19:45;;;;;;;;;;;7.00;99.90;;;;;;5060049;28;19980;-69
2023/03/04 11:22:14;;;;;;;;;;;7.10;99.90;;;;;;5062603;28;19933;-67
2023/03/04 11:24:43;;;;;;;;;;;6.90;99.90;;;;;;5064528;28;20039;-70
2023/03/04 11:27:15;;;;;;;;;;;7.00;99.90;;;;;;5063339;28;19943;-69
2023/03/04 11:29:44;;;;;;;;;;;7.00;99.90;;;;;;5062104;28;19924;-68
2023/03/04 11:32:14;;;;;;;;;;;7.20;99.90;;;;;;5061594;28;20043;-70
2023/03/04 11:34:44;;;;;;;;;;;7.40;99.90;;;;;;5061814;28;20008;-67
2023/03/04 11:37:13;;;;;;;;;;;7.60;99.90;;;;;;5061905;28;20007;-67
2023/03/04 11:39:43;;;;;;;;;;;7.70;99.90;;;;;;5066764;28;20018;-68
2023/03/04 11:42:17;;;;;;;;;;;7.70;99.90;;;;;;5066130;28;19924;-68
2023/03/04 11:44:43;;;;;;;;;;;7.70;99.90;;;;;;5058816;28;19943;-69
2023/03/04 11:47:23;;;;;;;;;;;7.50;99.90;;;;;;5061894;28;19932;-68
2023/03/04 11:50:04;;;;;;;;;;;7.40;99.90;;;;;;5061526;28;19948;-66
2023/03/04 11:52:45;;;;;;;;;;;7.30;99.90;;;;;;5066191;28;19925;-68
2023/03/04 11:55:18;;;;;;;;;;;7.50;99.90;;;;;;5064478;28;19924;-66
2023/03/04 11:57:51;;;;;;;;;;;7.50;99.90;;;;;;5059246;28;20083;-68
2023/03/04 12:00:24;;;;;;;;;;;7.30;99.90;;;;;;5063000;28;19925;-67
2023/03/04 12:03:02;;;;;;;;;;;7.40;99.90;;;;;;5062340;28;19975;-68
2023/03/04 12:05:35;;;;;;;;;;;7.70;99.90;;;;;;5066053;28;19975;-68
2023/03/04 12:08:26;;;;;;;;;;;7.90;99.90;;;;;;5061248;28;19924;-68
2023/03/04 12:10:56;;;;;;;;;;;8.10;99.90;;;;;;5059599;28;19925;-68
2023/03/04 12:13:35;;;;;;;;;;;8.40;99.90;;;;;;5059116;28;20011;-68
2023/03/04 12:16:10;;;;;;;;;;;8.50;99.90;;;;;;5060250;28;19924;-66
2023/03/04 12:18:41;;;;;;;;;;;8.40;99.90;;;;;;5066413;28;20406;-66
2023/03/04 12:21:15;;;;;;;;;;;8.00;99.90;;;;;;5065304;28;19924;-68
2023/03/04 12:23:48;;;;;;;;;;;8.20;99.90;;;;;;5064493;28;20015;-67
2023/03/04 12:26:21;;;;;;;;;;;8.30;99.90;;;;;;5063411;28;19931;-66
2023/03/04 12:28:53;;;;;;;;;;;8.30;99.90;;;;;;5054712;28;19947;-67
2023/03/04 12:31:26;;;;;;;;;;;8.30;99.90;;;;;;5060018;28;19935;-67
2023/03/04 12:33:59;;;;;;;;;;;8.30;99.90;;;;;;5063251;28;19933;-67
2023/03/04 12:36:32;;;;;;;;;;;8.30;99.90;;;;;;5062961;28;20019;-68
2023/03/04 12:39:00;;;;;;;;;;;8.10;99.90;;;;;;5061362;28;19936;-66
2023/03/04 12:41:31;;;;;;;;;;;8.00;99.90;;;;;;5048632;23;19925;-66
2023/03/04 12:44:03;;;;;;;;;;;8.00;99.90;;;;;;5041023;28;19925;-67
2023/03/04 12:46:37;;;;;;;;;;;8.00;99.90;;;;;;5044790;28;19939;-67
2023/03/04 12:49:25;;;;;;;;;;;8.10;99.90;;;;;;5042705;28;19987;-67
2023/03/04 12:51:55;;;;;;;;;;;8.00;99.90;;;;;;5041576;28;19939;-67
2023/03/04 12:54:25;;;;;;;;;;;8.10;99.90;;;;;;5038057;28;19975;-68
2023/03/04 12:56:54;;;;;;;;;;;8.00;99.90;;;;;;5020694;28;22242;-68
2023/03/04 12:59:23;;;;;;;;;;;8.10;99.90;;;;;;5033139;28;20295;-67
2023/03/04 13:01:54;;;;;;;;;;;7.90;99.90;;;;;;5033611;28;19925;-69
2023/03/04 13:04:23;;;;;;;;;;;7.80;99.90;;;;;;5032741;28;19933;-68
2023/03/04 13:06:56;;;;;;;;;;;7.80;99.90;;;;;;5036293;28;20011;-67
2023/03/04 13:09:26;;;;;;;;;;;7.90;99.90;;;;;;5031229;28;19935;-67
2023/03/04 13:11:54;;;;;;;;;;;7.90;99.90;;;;;;5039264;28;19960;-67
2023/03/04 13:14:30;;;;;;;;;;;8.00;99.90;;;;;;5033492;28;19932;-68
2023/03/04 13:17:00;;;;;;;;;;;8.10;99.90;;;;;;5035206;28;20008;-68
2023/03/04 13:19:47;;;;;;;;;;;8.20;99.90;;;;;;5033801;28;19933;-68
2023/03/04 13:22:27;;;;;;;;;;;8.40;99.90;;;;;;5036985;28;23262;-68
2023/03/04 13:24:55;;;;;;;;;;;8.20;99.90;;;;;;5033794;28;19976;-68
2023/03/04 13:27:40;;;;;;;;;;;8.00;99.90;;;;;;5035140;28;20649;-68
2023/03/04 13:30:30;;;;;;;;;;;8.10;99.90;;;;;;5040419;28;20010;-67
2023/03/04 13:32:57;;;;;;;;;;;8.10;99.90;;;;;;5041597;28;19955;-67
2023/03/04 13:35:43;;;;;;;;;;;8.20;99.90;;;;;;5041294;28;20059;-68
2023/03/04 13:38:20;;;;;;;;;;;7.90;99.90;;;;;;5037707;28;19939;-67
2023/03/04 13:41:06;;;;;;;;;;;7.70;99.90;;;;;;5038655;28;19929;-69
2023/03/04 13:43:38;;;;;;;;;;;7.80;99.90;;;;;;5036871;28;19928;-68
2023/03/04 13:46:25;;;;;;;;;;;7.80;99.90;;;;;;5045908;28;19925;-68
2023/03/04 13:49:01;;;;;;;;;;;8.00;99.90;;;;;;5036424;28;20027;-67
2023/03/04 13:51:29;;;;;;;;;;;8.10;99.90;;;;;;5041555;28;20113;-68
2023/03/04 13:54:06;;;;;;;;;;;8.10;99.90;;;;;;5039657;28;19925;-68
2023/03/04 13:56:33;;;;;;;;;;;8.10;99.90;;;;;;5040387;28;20048;-68
2023/03/04 13:59:15;;;;;;;;;;;8.10;99.90;;;;;;5044747;28;20020;-69
2023/03/04 14:01:51;;;;;;;;;;;8.10;99.90;;;;;;5044055;28;19948;-68
2023/03/04 14:04:21;;;;;;;;;;;8.10;99.90;;;;;;5040637;28;19925;-68
2023/03/04 14:06:48;;;;;;;;;;;8.00;99.90;;;;;;5041800;28;19925;-68
2023/03/04 14:09:16;;;;;;;;;;;8.00;99.90;;;;;;5040767;28;20007;-67
2023/03/04 14:11:43;;;;;;;;;;;7.80;99.90;;;;;;5044858;28;21112;-68
2023/03/04 14:14:12;;;;;;;;;;;7.80;99.90;;;;;;5043672;28;19929;-68
2023/03/04 14:16:40;;;;;;;;;;;7.80;99.90;;;;;;5038216;28;20030;-68
2023/03/04 14:19:13;;;;;;;;;;;7.90;99.90;;;;;;5048450;28;20003;-70
2023/03/04 14:21:44;;;;;;;;;;;7.90;99.90;;;;;;5045992;28;20015;-70
2023/03/04 14:24:12;;;;;;;;;;;7.90;99.90;;;;;;5046573;28;19992;-69
2023/03/04 14:26:39;;;;;;;;;;;7.80;99.90;;;;;;5042431;28;19939;-69
2023/03/04 14:29:20;;;;;;;;;;;7.60;99.90;;;;;;5045270;28;20031;-70
2023/03/04 14:31:47;;;;;;;;;;;7.40;99.90;;;;;;5043439;28;19929;-68
2023/03/04 14:34:17;;;;;;;;;;;7.50;99.90;;;;;;5045879;28;19971;-70
2023/03/04 14:36:46;;;;;;;;;;;7.40;99.90;;;;;;5056884;23;19924;-70
2023/03/04 14:39:14;;;;;;;;;;;7.30;99.90;;;;;;5052248;28;20440;-69
2023/03/04 14:41:43;;;;;;;;;;;7.30;99.90;;;;;;5052839;28;19933;-70
2023/03/04 14:44:14;;;;;;;;;;;7.20;99.90;;;;;;5053794;28;19932;-68